Terminal Aerodrome Forecast
Issued by NWS Aberdeen, SD

Home | Current Version | Previous Version | Text Only | Print | Product List | Glossary On
Versions: 1 2 3 4 5 6 7 8 9 10 11 12 13 14 15 16 17 18 19 20 21 22 23 24 25 26 27 28 29 30 31 32 33 34 35 36 37
000
FTAK31 PAFA 262331
TAFABR
TAF
PABR 262331Z 2700/2724 06016KT P6SM OVC007
     FM271300 07015KT 2SM BR OVC004
     FM271500 07016KT 3/4SM BR BKN003
     FM271900 07017KT P6SM OVC007=

USA.gov is the U.S. government's official web portal to all federal, state and local government web resources and services.